Jasper, New York
Current Conditions -  °F | °C
As of 3:56 PM on Monday 24 Nov 2014 (Local Time) from KELZ Reporting Station
Scattered Clouds Scattered Clouds  
Wind Chill: 62°   Ceiling: Unl
Heat Index: 62°   Visibility: 10mi
Dew Point: 42°   Wind: 12mph
Humidity: 48%   Direction: 210°SSW
Pressure: 29.42"   Gusts: 23mph
Location:  42.12°N, 77.5°W
Report Text: KELZ 242056Z AUTO 21010G20KT 10SM FEW060 SCT090 17/06 A2942 RMK AO2 PK WND 23037/2011 RAB09E25 SLP959 P0000 60006 T01670056 53013
Loading
Personal Weather Stations






























Interactive Weather Map New forecast layout! Learn more

10-Day Weather Forecast

Advertisements
Track Severe Weather on mobile